Time;durP1;ratioP1;P1;durP2;ratioP2;P2;SDS_P1;SDS_P2;PMS_P1;PMS_P2;Temp;Humidity;BMP_temperature;BMP_pressure;BME280_temperature;BME280_humidity;BME280_pressure;Samples;Min_cycle;Max_cycle;Signal;HPM_P1;HPM_P2
2021/04/26 00:02:09;;;;;;;8.02;5.45;;;15.00;44.30;;;;;;5016725;28;20500;-76
2021/04/26 00:04:35;;;;;;;9.73;5.82;;;15.00;44.20;;;;;;5016729;28;20022;-78
2021/04/26 00:07:00;;;;;;;6.78;4.88;;;14.80;44.30;;;;;;5015431;28;20408;-79
2021/04/26 00:09:26;;;;;;;9.43;5.45;;;14.80;44.50;;;;;;5016892;28;20030;-76
2021/04/26 00:11:52;;;;;;;8.55;5.47;;;14.80;44.50;;;;;;5016555;28;20029;-76
2021/04/26 00:14:18;;;;;;;10.80;6.25;;;14.80;44.70;;;;;;5016572;28;20033;-76
2021/04/26 00:16:44;;;;;;;9.77;5.50;;;14.80;44.70;;;;;;5016625;28;20029;-76
2021/04/26 00:19:09;;;;;;;7.63;5.60;;;14.70;44.70;;;;;;5017310;28;20041;-76
2021/04/26 00:21:35;;;;;;;8.48;5.18;;;14.70;44.60;;;;;;5026560;28;20088;-76
2021/04/26 00:24:01;;;;;;;10.63;5.72;;;14.80;44.60;;;;;;5019652;28;20543;-76
2021/04/26 00:26:27;;;;;;;9.73;5.18;;;14.70;44.70;;;;;;5036065;28;20407;-75
2021/04/26 00:28:52;;;;;;;11.07;5.90;;;14.70;44.70;;;;;;5036321;28;20052;-76
2021/04/26 00:31:18;;;;;;;10.48;5.70;;;14.60;44.90;;;;;;5031808;28;20038;-76
2021/04/26 00:33:44;;;;;;;9.73;5.32;;;14.50;45.00;;;;;;5016051;28;20129;-76
2021/04/26 00:36:09;;;;;;;6.70;5.38;;;14.50;45.20;;;;;;5016163;28;20444;-76
2021/04/26 00:38:35;;;;;;;9.48;4.95;;;14.40;45.20;;;;;;5027447;28;20582;-76
2021/04/26 00:41:01;;;;;;;8.18;5.53;;;14.40;45.20;;;;;;5035796;28;20131;-76
2021/04/26 00:43:26;;;;;;;8.98;5.20;;;14.40;45.20;;;;;;5019878;28;20510;-76
2021/04/26 00:45:52;;;;;;;6.95;5.00;;;14.40;45.20;;;;;;5014725;28;20053;-76
2021/04/26 00:48:18;;;;;;;7.30;4.93;;;14.40;45.20;;;;;;5016080;28;20489;-79
2021/04/26 00:50:43;;;;;;;11.18;5.88;;;14.40;45.30;;;;;;5030386;28;20124;-78
2021/04/26 00:53:12;;;;;;;14.00;5.25;;;14.30;46.10;;;;;;5015988;28;20026;-78
2021/04/26 00:55:39;;;;;;;11.55;6.22;;;14.30;45.50;;;;;;5015786;28;20034;-78
2021/04/26 00:58:05;;;;;;;10.40;5.75;;;14.20;45.60;;;;;;5014596;28;20028;-78
2021/04/26 01:00:32;;;;;;;12.00;5.85;;;14.10;45.70;;;;;;5015950;28;20440;-78
2021/04/26 01:02:57;;;;;;;10.02;5.32;;;14.10;46.00;;;;;;5014513;28;20117;-78
2021/04/26 01:05:30;;;;;;;10.88;5.68;;;14.00;46.10;;;;;;5015803;28;20104;-78
2021/04/26 01:07:57;;;;;;;14.80;6.15;;;14.00;46.10;;;;;;5015838;28;20032;-78
2021/04/26 01:10:26;;;;;;;14.95;5.63;;;13.90;46.30;;;;;;5014245;28;20091;-78
2021/04/26 01:13:34;;;;;;;10.48;5.45;;;13.90;46.20;;;;;;5015750;28;20105;-78
2021/04/26 01:16:14;;;;;;;8.88;4.57;;;13.90;46.50;;;;;;5015087;28;20607;-78
2021/04/26 01:19:01;;;;;;;9.88;5.63;;;13.90;46.30;;;;;;5015686;28;20374;-78
2021/04/26 01:21:50;;;;;;;9.80;5.35;;;13.90;46.30;;;;;;5015694;28;20030;-78
2021/04/26 01:24:53;;;;;;;13.75;5.75;;;13.80;46.40;;;;;;5016063;28;20033;-78
2021/04/26 01:27:54;;;;;;;9.02;5.43;;;13.80;46.50;;;;;;5035120;28;20541;-78
2021/04/26 01:30:40;;;;;;;8.05;4.95;;;13.80;46.50;;;;;;5015452;28;20055;-78
2021/04/26 01:33:13;;;;;;;12.68;5.75;;;13.70;47.00;;;;;;5014172;28;20034;-78
2021/04/26 01:35:39;;;;;;;10.65;5.53;;;13.60;47.00;;;;;;5015277;28;20072;-78
2021/04/26 01:38:19;;;;;;;10.10;5.40;;;13.60;47.00;;;;;;5043674;28;20472;-78
2021/04/26 01:40:48;;;;;;;10.15;5.15;;;13.50;47.30;;;;;;5035138;28;20025;-77
2021/04/26 01:43:17;;;;;;;11.63;6.40;;;13.50;47.00;;;;;;5033181;28;20053;-78
2021/04/26 01:45:45;;;;;;;13.90;5.80;;;13.50;47.10;;;;;;5034961;28;20095;-78
2021/04/26 01:48:11;;;;;;;9.35;5.60;;;13.50;47.00;;;;;;5035191;28;20026;-78
2021/04/26 01:50:37;;;;;;;12.82;6.28;;;13.50;47.10;;;;;;5016426;28;20105;-78
2021/04/26 01:53:04;;;;;;;11.68;5.50;;;13.30;47.40;;;;;;5015422;28;20032;-78
2021/04/26 01:55:30;;;;;;;9.68;4.95;;;13.30;47.50;;;;;;5015971;28;20057;-78
2021/04/26 01:57:57;;;;;;;10.68;5.25;;;13.30;47.40;;;;;;5019233;28;20080;-77
2021/04/26 02:00:30;;;;;;;12.93;5.72;;;13.30;47.60;;;;;;5019078;28;20121;-78
2021/04/26 02:02:57;;;;;;;8.70;4.95;;;13.30;47.30;;;;;;5018083;28;20077;-78
2021/04/26 02:05:25;;;;;;;12.27;5.78;;;13.40;47.10;;;;;;5019137;28;20042;-78
2021/04/26 02:07:51;;;;;;;11.73;4.85;;;13.30;47.60;;;;;;5019044;28;20030;-78
2021/04/26 02:10:20;;;;;;;9.13;5.50;;;13.30;47.50;;;;;;5018846;28;20029;-78
2021/04/26 02:12:47;;;;;;;9.05;5.40;;;13.30;47.70;;;;;;5019013;28;20030;-78
2021/04/26 02:15:19;;;;;;;8.57;5.53;;;13.20;47.60;;;;;;5018868;28;20519;-78
2021/04/26 02:17:46;;;;;;;9.77;5.22;;;13.20;47.60;;;;;;5018697;28;20036;-78
2021/04/26 02:20:14;;;;;;;11.40;5.82;;;13.20;47.80;;;;;;5018857;28;20025;-78
2021/04/26 02:22:40;;;;;;;9.27;5.43;;;13.10;47.80;;;;;;5018734;28;20552;-78
2021/04/26 02:25:09;;;;;;;9.85;5.40;;;13.10;47.60;;;;;;5018621;28;20087;-78
2021/04/26 02:27:35;;;;;;;14.60;5.82;;;13.10;47.70;;;;;;5018723;28;20026;-78
2021/04/26 02:30:01;;;;;;;12.05;6.68;;;13.10;47.80;;;;;;5017269;28;20552;-78
2021/04/26 02:32:31;;;;;;;9.98;5.00;;;13.00;48.00;;;;;;5018630;28;20029;-78
2021/04/26 02:34:59;;;;;;;13.10;5.82;;;13.00;48.40;;;;;;5018255;28;20050;-78
2021/04/26 02:37:56;;;;;;;9.15;5.47;;;13.00;47.80;;;;;;5018660;28;20205;-77
2021/04/26 02:40:24;;;;;;;13.45;5.60;;;12.90;48.00;;;;;;5018310;28;20025;-78
2021/04/26 02:42:52;;;;;;;9.43;5.90;;;13.00;48.00;;;;;;5018360;28;20022;-78
2021/04/26 02:45:25;;;;;;;8.43;5.25;;;12.90;48.30;;;;;;5024439;28;20032;-77
2021/04/26 02:47:53;;;;;;;11.30;5.60;;;12.70;48.40;;;;;;5038110;28;20114;-78
2021/04/26 02:50:22;;;;;;;7.70;5.25;;;12.80;48.40;;;;;;5038259;28;20040;-78
2021/04/26 02:52:49;;;;;;;9.35;5.10;;;12.80;48.60;;;;;;5024678;28;20034;-78
2021/04/26 02:55:16;;;;;;;10.82;5.47;;;12.90;48.30;;;;;;5018109;28;20060;-78
2021/04/26 02:57:42;;;;;;;7.57;4.65;;;12.80;48.30;;;;;;5018110;28;20030;-78
2021/04/26 03:00:11;;;;;;;11.82;5.35;;;12.80;48.40;;;;;;5018144;28;20022;-77
2021/04/26 03:02:39;;;;;;;10.98;6.18;;;12.80;48.70;;;;;;5018074;28;20021;-78
2021/04/26 03:05:07;;;;;;;9.32;6.00;;;12.70;48.70;;;;;;5018001;28;20037;-78
2021/04/26 03:07:34;;;;;;;9.52;5.38;;;12.80;48.60;;;;;;5017521;28;20022;-78
2021/04/26 03:10:02;;;;;;;12.35;5.97;;;12.80;48.60;;;;;;5017909;28;20087;-78
2021/04/26 03:12:35;;;;;;;10.45;5.22;;;12.80;48.60;;;;;;5016515;28;20057;-78
2021/04/26 03:15:03;;;;;;;15.00;5.90;;;12.80;48.70;;;;;;5016356;28;20098;-78
2021/04/26 03:17:29;;;;;;;13.10;5.95;;;12.70;48.60;;;;;;5017801;28;20445;-77
2021/04/26 03:19:56;;;;;;;13.90;5.40;;;12.70;48.60;;;;;;5017737;28;20018;-78
2021/04/26 03:22:23;;;;;;;10.07;5.82;;;12.60;48.70;;;;;;5017654;28;20037;-77
2021/04/26 03:24:49;;;;;;;8.98;5.32;;;12.60;49.20;;;;;;5017589;28;20148;-78
2021/04/26 03:27:17;;;;;;;9.18;5.13;;;12.60;48.90;;;;;;5017555;28;20432;-78
2021/04/26 03:29:46;;;;;;;11.45;5.55;;;12.70;48.70;;;;;;5017549;28;20025;-78
2021/04/26 03:32:15;;;;;;;9.02;5.45;;;12.70;48.80;;;;;;5017415;28;20022;-78
2021/04/26 03:34:42;;;;;;;8.95;5.38;;;12.60;49.20;;;;;;5017240;28;20058;-77
2021/04/26 03:37:18;;;;;;;7.75;5.25;;;12.60;49.00;;;;;;5021639;28;20034;-78
2021/04/26 03:39:45;;;;;;;10.15;5.45;;;12.60;49.20;;;;;;5017369;28;20393;-77
2021/04/26 03:42:15;;;;;;;16.00;6.57;;;12.60;49.00;;;;;;5017357;28;20022;-78
2021/04/26 03:44:46;;;;;;;9.88;5.78;;;12.60;49.30;;;;;;5017342;28;20406;-78
2021/04/26 03:47:12;;;;;;;12.27;6.40;;;12.60;49.30;;;;;;5020525;28;20036;-78
2021/04/26 03:49:38;;;;;;;14.02;6.95;;;12.60;49.50;;;;;;5036972;28;20027;-78
2021/04/26 03:52:05;;;;;;;12.80;6.45;;;12.50;49.20;;;;;;5036945;28;20031;-78
2021/04/26 03:54:31;;;;;;;12.25;6.35;;;12.50;49.60;;;;;;5022593;28;20088;-78
2021/04/26 03:56:57;;;;;;;11.60;5.97;;;12.50;49.60;;;;;;5016964;28;20022;-78
2021/04/26 03:59:23;;;;;;;13.55;5.93;;;12.40;49.90;;;;;;5016962;28;20025;-78
2021/04/26 04:01:49;;;;;;;9.70;5.78;;;12.40;49.50;;;;;;5016933;28;20906;-78
2021/04/26 04:04:15;;;;;;;8.70;5.82;;;12.40;49.70;;;;;;5016852;28;20117;-78
2021/04/26 04:06:40;;;;;;;9.30;5.85;;;12.30;50.00;;;;;;5031660;28;20085;-78
2021/04/26 04:09:07;;;;;;;12.07;6.28;;;12.30;50.10;;;;;;5036559;28;20029;-78
2021/04/26 04:11:34;;;;;;;8.73;6.28;;;12.30;50.20;;;;;;5034486;28;20041;-78
2021/04/26 04:14:00;;;;;;;10.05;6.32;;;12.20;50.80;;;;;;5036398;28;20026;-78
2021/04/26 04:16:30;;;;;;;9.30;5.85;;;12.10;50.70;;;;;;5035224;28;20029;-78
2021/04/26 04:18:56;;;;;;;11.17;6.10;;;12.10;50.70;;;;;;5035671;28;20045;-78
2021/04/26 04:21:22;;;;;;;9.85;5.80;;;12.10;50.80;;;;;;5036379;28;20068;-78
2021/04/26 04:23:48;;;;;;;12.93;5.55;;;12.00;51.00;;;;;;5016533;28;20042;-78
2021/04/26 04:26:14;;;;;;;10.57;5.25;;;12.00;50.80;;;;;;5025111;28;20466;-78
2021/04/26 04:28:39;;;;;;;9.88;5.97;;;12.00;50.90;;;;;;5034875;28;20026;-78
2021/04/26 04:31:05;;;;;;;9.85;6.03;;;12.00;50.80;;;;;;5036282;28;20038;-77
2021/04/26 04:33:31;;;;;;;11.93;6.20;;;12.00;51.00;;;;;;5034576;28;20068;-78
2021/04/26 04:35:57;;;;;;;12.20;6.32;;;12.00;50.80;;;;;;5036142;28;20553;-78
2021/04/26 04:38:25;;;;;;;11.50;5.88;;;11.90;51.20;;;;;;5029572;28;20040;-78
2021/04/26 04:40:51;;;;;;;9.45;5.72;;;11.90;51.20;;;;;;5014795;28;20036;-78
2021/04/26 04:43:17;;;;;;;9.27;5.28;;;11.90;51.00;;;;;;5016161;28;20030;-78
2021/04/26 04:45:43;;;;;;;14.70;5.53;;;11.80;51.90;;;;;;5016129;28;20385;-78
2021/04/26 04:48:08;;;;;;;11.20;5.63;;;11.70;51.60;;;;;;5016240;28;20025;-78
2021/04/26 04:50:34;;;;;;;14.07;6.82;;;11.70;52.10;;;;;;5014769;28;20060;-78
2021/04/26 04:53:00;;;;;;;9.93;5.75;;;11.70;51.70;;;;;;5015936;28;20409;-78
2021/04/26 04:55:26;;;;;;;12.77;6.57;;;11.60;52.30;;;;;;5015960;28;20037;-88
2021/04/26 04:57:51;;;;;;;9.55;6.35;;;11.60;52.30;;;;;;5015101;28;20034;-82
2021/04/26 05:00:17;;;;;;;10.82;6.60;;;11.60;52.10;;;;;;5014893;28;20503;-81
2021/04/26 05:02:43;;;;;;;9.15;6.05;;;11.60;52.20;;;;;;5015689;28;20032;-81
2021/04/26 05:05:09;;;;;;;13.40;6.28;;;11.60;52.10;;;;;;5015859;28;20033;-85
2021/04/26 05:07:35;;;;;;;10.27;6.85;;;11.70;52.00;;;;;;5014661;28;20030;-84
2021/04/26 05:10:00;;;;;;;12.45;6.60;;;11.70;51.90;;;;;;5015597;28;20022;-84
2021/04/26 05:12:26;;;;;;;11.48;5.82;;;11.60;52.00;;;;;;5027744;28;20128;-83
2021/04/26 05:14:52;;;;;;;14.18;7.18;;;11.60;52.00;;;;;;5035418;28;20030;-84
2021/04/26 05:17:18;;;;;;;9.48;5.22;;;11.70;51.90;;;;;;5034114;28;20064;-84
2021/04/26 05:19:44;;;;;;;10.27;5.53;;;11.70;51.90;;;;;;5034585;28;20168;-80
2021/04/26 05:22:10;;;;;;;12.75;6.53;;;11.70;51.40;;;;;;5034327;28;20160;-79
2021/04/26 05:24:40;;;;;;;10.43;5.93;;;11.40;52.80;;;;;;5029242;28;20571;-82
2021/04/26 05:27:06;;;;;;;11.40;6.27;;;11.30;52.90;;;;;;5017844;28;20042;-82
2021/04/26 05:29:31;;;;;;;8.82;5.63;;;11.20;53.20;;;;;;5033094;28;20269;-84
2021/04/26 05:31:57;;;;;;;12.57;6.28;;;11.10;53.50;;;;;;5007487;28;20026;-81
2021/04/26 05:34:23;;;;;;;10.32;6.35;;;11.10;53.40;;;;;;4912313;28;23630;-82
2021/04/26 05:36:48;;;;;;;10.27;5.97;;;11.00;53.60;;;;;;5022068;28;20719;-79
2021/04/26 05:39:14;;;;;;;10.35;5.75;;;11.00;53.80;;;;;;4999211;28;20029;-82
2021/04/26 05:41:40;;;;;;;8.82;5.72;;;11.10;53.70;;;;;;4916900;28;20151;-86
2021/04/26 05:44:06;;;;;;;11.93;5.88;;;11.00;53.60;;;;;;5026992;28;20056;-85
2021/04/26 05:46:32;;;;;;;11.02;6.28;;;11.00;53.70;;;;;;5035066;28;20567;-85
2021/04/26 05:48:57;;;;;;;12.07;5.88;;;11.00;53.90;;;;;;5034797;28;20029;-87
2021/04/26 05:51:23;;;;;;;11.55;5.95;;;10.90;53.80;;;;;;5033598;28;20638;-81
2021/04/26 05:53:49;;;;;;;12.85;5.97;;;10.90;53.80;;;;;;5034719;28;20420;-86
2021/04/26 05:56:14;;;;;;;10.48;5.53;;;10.90;53.60;;;;;;5027858;28;20022;-85
2021/04/26 05:58:40;;;;;;;13.85;5.65;;;10.90;53.90;;;;;;5045050;28;20106;-90
2021/04/26 06:01:06;;;;;;;8.60;5.95;;;10.90;54.00;;;;;;5030873;28;20116;-90
2021/04/26 06:03:32;;;;;;;8.57;6.00;;;10.90;53.60;;;;;;5051504;28;20444;-88
2021/04/26 06:05:57;;;;;;;14.38;6.43;;;10.90;53.70;;;;;;5026385;28;20311;-89
2021/04/26 06:08:25;;;;;;;11.43;6.40;;;10.80;53.80;;;;;;5041261;28;20030;-90
2021/04/26 06:10:51;;;;;;;13.68;7.32;;;10.80;54.00;;;;;;5015811;28;20072;-85
2021/04/26 06:13:17;;;;;;;10.38;6.22;;;10.80;54.00;;;;;;5030815;28;20022;-90
2021/04/26 06:15:43;;;;;;;12.43;6.95;;;10.80;54.10;;;;;;5044193;28;20036;-88
2021/04/26 06:18:10;;;;;;;10.30;6.85;;;10.80;54.10;;;;;;5019336;28;20022;-89
2021/04/26 06:20:36;;;;;;;13.32;6.68;;;10.80;53.80;;;;;;5023273;28;20117;-88
2021/04/26 06:23:02;;;;;;;10.65;5.80;;;10.80;53.90;;;;;;5033734;28;20107;-84
2021/04/26 06:25:28;;;;;;;10.13;5.95;;;10.90;53.60;;;;;;5032809;28;20036;-82
2021/04/26 06:27:53;;;;;;;10.93;6.07;;;10.90;53.50;;;;;;5031673;28;20040;-86
2021/04/26 06:30:19;;;;;;;10.05;5.90;;;11.00;54.20;;;;;;5025880;28;20053;-86
2021/04/26 06:32:45;;;;;;;11.23;6.40;;;11.00;53.10;;;;;;5026953;28;20084;-85
2021/04/26 06:35:11;;;;;;;11.70;6.78;;;11.00;53.10;;;;;;5029230;28;20081;-85
2021/04/26 06:37:37;;;;;;;11.27;5.90;;;11.10;52.90;;;;;;5031584;28;20025;-85
2021/04/26 06:40:03;;;;;;;14.93;6.55;;;11.10;52.90;;;;;;5032727;28;20028;-86
2021/04/26 06:42:29;;;;;;;11.52;5.80;;;11.10;53.00;;;;;;5032416;28;20361;-84
2021/04/26 06:44:55;;;;;;;12.10;6.32;;;11.10;52.90;;;;;;5036592;28;20036;-85
2021/04/26 06:47:21;;;;;;;10.13;6.18;;;11.10;52.70;;;;;;5050377;28;20503;-87
2021/04/26 06:49:46;;;;;;;11.30;5.85;;;11.10;52.90;;;;;;5035567;28;20049;-86
2021/04/26 06:52:12;;;;;;;12.23;6.15;;;11.10;52.90;;;;;;5034651;28;20026;-86
2021/04/26 06:54:38;;;;;;;10.65;6.05;;;11.10;52.70;;;;;;5031744;28;20087;-84
2021/04/26 06:57:04;;;;;;;11.38;6.55;;;11.10;52.60;;;;;;5036324;28;20022;-87
2021/04/26 06:59:29;;;;;;;10.18;5.93;;;11.20;52.60;;;;;;5036519;28;20029;-85
2021/04/26 07:01:55;;;;;;;11.02;6.65;;;11.30;52.10;;;;;;5025771;28;20026;-86
2021/04/26 07:04:21;;;;;;;11.20;6.05;;;11.30;52.10;;;;;;5036059;28;20111;-85
2021/04/26 07:06:46;;;;;;;10.90;5.70;;;11.40;51.50;;;;;;5034238;28;20559;-86
2021/04/26 07:09:12;;;;;;;11.45;6.90;;;11.30;51.70;;;;;;5035680;28;20500;-87
2021/04/26 07:11:39;;;;;;;11.32;6.18;;;11.40;51.60;;;;;;5034161;28;20054;-79
2021/04/26 07:14:05;;;;;;;10.32;6.43;;;11.50;51.30;;;;;;5032457;28;20033;-84
2021/04/26 07:16:31;;;;;;;11.10;6.28;;;11.70;50.80;;;;;;5030839;28;20152;-86
2021/04/26 07:18:57;;;;;;;10.82;6.07;;;11.90;50.60;;;;;;5031400;28;20033;-79
2021/04/26 07:21:23;;;;;;;11.98;6.88;;;12.20;49.90;;;;;;5032249;28;20396;-79
2021/04/26 07:23:48;;;;;;;11.95;6.40;;;12.40;49.00;;;;;;5031411;28;20021;-81
2021/04/26 07:26:14;;;;;;;13.15;6.22;;;12.60;48.90;;;;;;5033739;28;20033;-83
2021/04/26 07:28:40;;;;;;;8.93;6.10;;;12.80;48.70;;;;;;5032296;28;20037;-80
2021/04/26 07:31:06;;;;;;;10.65;6.30;;;12.90;48.10;;;;;;5032545;28;20049;-83
2021/04/26 07:33:32;;;;;;;9.63;5.68;;;13.00;47.70;;;;;;5028602;28;20061;-84
2021/04/26 07:35:58;;;;;;;13.95;6.03;;;13.30;47.20;;;;;;5030992;28;20029;-82
2021/04/26 07:38:24;;;;;;;10.52;5.65;;;13.70;46.50;;;;;;5029213;28;20396;-85
2021/04/26 07:40:50;;;;;;;11.20;5.75;;;14.00;46.00;;;;;;5031591;28;20026;-83
2021/04/26 07:43:15;;;;;;;10.23;5.80;;;14.20;45.60;;;;;;5033381;28;20025;-84
2021/04/26 07:45:41;;;;;;;11.52;5.95;;;14.50;45.20;;;;;;5036196;28;20484;-84
2021/04/26 07:48:07;;;;;;;10.90;6.75;;;15.30;44.20;;;;;;5032930;28;20064;-82
2021/04/26 07:50:33;;;;;;;8.90;5.63;;;16.10;42.50;;;;;;5030272;28;20040;-83
2021/04/26 07:52:59;;;;;;;10.10;6.43;;;16.50;41.40;;;;;;5031160;28;20084;-85
2021/04/26 07:55:25;;;;;;;9.13;6.63;;;16.80;40.70;;;;;;5028211;28;20061;-83
2021/04/26 07:57:51;;;;;;;8.70;5.70;;;17.30;40.50;;;;;;5048769;28;20018;-88
2021/04/26 08:00:18;;;;;;;9.38;5.68;;;17.30;40.10;;;;;;5030921;28;20029;-85
2021/04/26 08:02:44;;;;;;;9.63;5.68;;;17.00;40.10;;;;;;5026472;28;20025;-84
2021/04/26 08:05:11;;;;;;;9.07;6.35;;;16.50;41.10;;;;;;5024169;28;20045;-85
2021/04/26 08:07:36;;;;;;;9.55;5.82;;;16.30;41.30;;;;;;5033978;28;20399;-87
2021/04/26 08:10:03;;;;;;;11.25;6.50;;;16.20;42.10;;;;;;5030098;28;20040;-86
2021/04/26 08:12:29;;;;;;;10.77;6.88;;;16.30;41.30;;;;;;5033441;28;20025;-85
2021/04/26 08:14:55;;;;;;;11.77;6.57;;;16.60;41.40;;;;;;5024632;28;20805;-86
2021/04/26 08:17:20;;;;;;;11.18;7.40;;;16.80;40.80;;;;;;5031669;28;20021;-86
2021/04/26 08:19:46;;;;;;;11.30;6.57;;;16.90;40.90;;;;;;5032464;28;20033;-85
2021/04/26 08:22:12;;;;;;;13.98;8.75;;;17.00;40.40;;;;;;5031922;28;20056;-87
2021/04/26 08:24:39;;;;;;;12.05;7.30;;;17.10;40.50;;;;;;5035147;28;20030;-87
2021/04/26 08:27:05;;;;;;;19.27;11.95;;;17.50;39.80;;;;;;5030950;28;20087;-86
2021/04/26 08:29:31;;;;;;;9.30;6.72;;;18.00;39.10;;;;;;5032479;28;20037;-87
2021/04/26 08:31:57;;;;;;;10.98;6.45;;;18.60;38.50;;;;;;5046548;28;20411;-87
2021/04/26 08:34:22;;;;;;;11.52;8.52;;;18.70;37.80;;;;;;5034246;28;20053;-87
2021/04/26 08:36:48;;;;;;;8.88;6.05;;;19.00;37.40;;;;;;5031201;28;20080;-86
2021/04/26 08:39:16;;;;;;;13.20;6.45;;;18.90;37.10;;;;;;5033253;28;20037;-85
2021/04/26 08:41:42;;;;;;;10.95;6.63;;;18.70;37.40;;;;;;5030769;28;20030;-86
2021/04/26 08:44:08;;;;;;;7.68;5.80;;;18.80;37.60;;;;;;5030721;28;20025;-86
2021/04/26 08:46:35;;;;;;;8.77;5.78;;;18.80;37.40;;;;;;5033474;28;20111;-80
2021/04/26 08:49:00;;;;;;;10.95;7.65;;;19.20;36.80;;;;;;5033367;28;20029;-84
2021/04/26 08:51:26;;;;;;;14.48;8.95;;;19.60;36.30;;;;;;5034884;28;20035;-82
2021/04/26 08:53:52;;;;;;;10.93;7.55;;;20.20;36.10;;;;;;5033482;28;20029;-82
2021/04/26 08:56:18;;;;;;;8.63;6.35;;;21.00;35.60;;;;;;5034236;28;20083;-79
2021/04/26 08:58:44;;;;;;;12.75;9.27;;;21.50;34.40;;;;;;5021151;28;20030;-89
2021/04/26 09:01:09;;;;;;;15.40;10.13;;;22.00;33.40;;;;;;5038685;28;20053;-81
2021/04/26 09:03:37;;;;;;;16.63;10.93;;;22.10;33.40;;;;;;5024945;28;20468;-79
2021/04/26 09:06:06;;;;;;;8.98;7.25;;;22.10;33.30;;;;;;5023989;28;20022;-82
2021/04/26 09:08:32;;;;;;;10.02;7.07;;;21.80;32.80;;;;;;5023507;28;20108;-79
2021/04/26 09:11:03;;;;;;;13.30;8.35;;;21.50;33.80;;;;;;5017952;28;20065;-88
2021/04/26 09:13:32;;;;;;;9.73;7.18;;;21.60;33.80;;;;;;5019610;28;20085;-86
2021/04/26 09:16:08;;;;;;;7.60;6.13;;;21.60;34.60;;;;;;5022981;28;20053;-86
2021/04/26 09:18:57;;;;;;;11.77;6.60;;;21.50;33.70;;;;;;5023867;28;20026;-83
2021/04/26 09:21:33;;;;;;;9.18;5.45;;;20.60;34.10;;;;;;5019953;28;20032;-84
2021/04/26 09:24:21;;;;;;;9.20;6.50;;;20.20;35.60;;;;;;5022329;28;20018;-83
2021/04/26 09:26:49;;;;;;;8.60;5.50;;;19.80;36.80;;;;;;5027116;28;20514;-82
2021/04/26 09:29:24;;;;;;;8.50;5.88;;;19.60;36.70;;;;;;5016937;28;20061;-78
2021/04/26 09:32:08;;;;;;;10.68;5.78;;;19.20;36.70;;;;;;5017621;28;20041;-81
2021/04/26 09:34:35;;;;;;;8.63;5.07;;;19.00;37.30;;;;;;5021584;28;20050;-81
2021/04/26 09:37:09;;;;;;;9.55;5.30;;;18.60;37.40;;;;;;5020853;28;20500;-82
2021/04/26 09:39:53;;;;;;;7.88;4.78;;;18.50;37.70;;;;;;5023130;28;20033;-82
2021/04/26 09:42:55;;;;;;;8.45;5.35;;;18.40;37.80;;;;;;5026373;28;20056;-83
2021/04/26 09:45:39;;;;;;;11.32;5.53;;;18.30;38.40;;;;;;5017118;28;20612;-81
2021/04/26 09:48:12;;;;;;;9.52;5.40;;;18.20;37.70;;;;;;5024255;28;20029;-80
2021/04/26 09:50:49;;;;;;;10.23;5.47;;;18.30;38.30;;;;;;5016808;28;20511;-79
2021/04/26 09:53:15;;;;;;;7.57;5.38;;;18.30;38.60;;;;;;5014249;28;20041;-80
2021/04/26 09:55:40;;;;;;;8.63;4.53;;;18.30;38.70;;;;;;5026553;28;20030;-80
2021/04/26 09:58:06;;;;;;;8.80;4.25;;;18.10;37.80;;;;;;5013859;28;20022;-85
2021/04/26 10:00:33;;;;;;;7.90;4.35;;;18.10;37.40;;;;;;5013101;28;20058;-82
2021/04/26 10:02:59;;;;;;;10.90;4.72;;;18.10;37.20;;;;;;5019762;28;20037;-82
2021/04/26 10:05:25;;;;;;;6.57;4.30;;;18.20;37.40;;;;;;5014334;28;20038;-80
2021/04/26 10:07:51;;;;;;;6.28;4.30;;;18.20;37.30;;;;;;5015686;28;20042;-81
2021/04/26 10:10:17;;;;;;;8.15;4.70;;;18.20;37.30;;;;;;5014209;28;20037;-81
2021/04/26 10:12:43;;;;;;;7.65;4.95;;;18.30;37.30;;;;;;5014268;28;20697;-81
2021/04/26 10:15:10;;;;;;;8.80;4.57;;;18.40;38.00;;;;;;5016844;28;20058;-80
2021/04/26 10:17:37;;;;;;;7.97;4.57;;;18.50;36.70;;;;;;5023127;28;20026;-81
2021/04/26 10:20:04;;;;;;;6.63;4.55;;;18.60;37.10;;;;;;5022395;28;20075;-81
2021/04/26 10:22:38;;;;;;;7.35;4.72;;;18.60;37.30;;;;;;5025945;28;20029;-82
2021/04/26 10:25:06;;;;;;;13.02;5.10;;;18.60;38.50;;;;;;5018452;28;20435;-82
2021/04/26 10:27:33;;;;;;;5.03;3.92;;;18.40;36.40;;;;;;5016516;28;20167;-82
2021/04/26 10:30:10;;;;;;;6.93;4.60;;;18.20;36.20;;;;;;5017117;28;20037;-82
2021/04/26 10:32:59;;;;;;;8.70;4.53;;;18.10;37.20;;;;;;5037406;28;20044;-80
2021/04/26 10:35:41;;;;;;;7.88;5.55;;;18.20;37.70;;;;;;5028685;28;20046;-82
2021/04/26 10:38:37;;;;;;;9.23;5.05;;;18.30;37.10;;;;;;5017888;28;20080;-83
2021/04/26 10:41:07;;;;;;;8.75;5.68;;;18.20;36.90;;;;;;5019271;28;20381;-81
2021/04/26 10:43:33;;;;;;;7.65;5.00;;;18.20;37.40;;;;;;5018003;28;20045;-82
2021/04/26 10:46:14;;;;;;;7.88;4.70;;;18.30;37.20;;;;;;5037145;28;20124;-81
2021/04/26 10:49:06;;;;;;;8.15;4.38;;;18.30;36.90;;;;;;5037347;28;20184;-82
2021/04/26 10:51:34;;;;;;;7.53;5.13;;;18.40;37.30;;;;;;5029471;28;20038;-82
2021/04/26 10:54:00;;;;;;;7.50;4.50;;;18.40;37.40;;;;;;5017718;28;20095;-82
2021/04/26 10:56:28;;;;;;;8.70;4.70;;;18.30;36.50;;;;;;5017330;28;20866;-82
2021/04/26 10:59:16;;;;;;;6.03;3.58;;;18.40;37.00;;;;;;5017718;28;20412;-82
2021/04/26 11:01:52;;;;;;;8.40;4.28;;;18.40;35.70;;;;;;5020499;28;20022;-81
2021/04/26 11:04:18;;;;;;;7.10;4.30;;;18.40;37.00;;;;;;5016977;28;20068;-81
2021/04/26 11:07:18;;;;;;;6.88;4.22;;;18.30;36.50;;;;;;5016894;28;20026;-80
2021/04/26 11:09:45;;;;;;;9.30;4.07;;;18.20;37.30;;;;;;5012125;28;20158;-78
2021/04/26 11:12:30;;;;;;;7.43;4.05;;;18.30;37.20;;;;;;5018701;28;20041;-78
2021/04/26 11:15:17;;;;;;;7.25;3.65;;;18.40;37.60;;;;;;5035504;28;20029;-77
2021/04/26 11:17:44;;;;;;;6.63;4.40;;;18.60;37.50;;;;;;5031452;28;20029;-78
2021/04/26 11:20:22;;;;;;;4.70;3.55;;;18.40;36.40;;;;;;5017170;28;20030;-78
2021/04/26 11:22:52;;;;;;;6.15;4.03;;;18.30;36.30;;;;;;5016094;28;20076;-78
2021/04/26 11:25:41;;;;;;;7.50;4.63;;;18.30;38.40;;;;;;5019967;28;20026;-78
2021/04/26 11:28:09;;;;;;;6.10;3.77;;;18.40;37.80;;;;;;5034423;28;20423;-78
2021/04/26 11:30:36;;;;;;;9.43;4.53;;;18.50;37.00;;;;;;5033574;28;20094;-79
2021/04/26 11:33:11;;;;;;;6.32;4.28;;;18.60;39.00;;;;;;5018006;28;20018;-82
2021/04/26 11:35:56;;;;;;;9.10;4.05;;;18.80;38.00;;;;;;5019739;28;20571;-80
2021/04/26 11:38:23;;;;;;;7.00;4.28;;;18.90;37.10;;;;;;5016427;28;20034;-84
2021/04/26 11:40:53;;;;;;;5.38;3.85;;;18.90;36.00;;;;;;5015809;28;20033;-83
2021/04/26 11:43:19;;;;;;;8.57;4.93;;;18.90;36.70;;;;;;5023455;28;20022;-85
2021/04/26 11:45:48;;;;;;;4.72;3.38;;;19.00;36.60;;;;;;5036410;28;20044;-81
2021/04/26 11:48:26;;;;;;;4.90;3.13;;;19.00;36.80;;;;;;4919267;28;83365;-79
2021/04/26 11:50:52;;;;;;;6.05;4.30;;;19.00;35.50;;;;;;4978314;28;20067;-80
2021/04/26 11:53:26;;;;;;;5.93;3.60;;;18.90;36.40;;;;;;5036023;28;20026;-81
2021/04/26 11:55:52;;;;;;;6.40;3.80;;;19.00;36.80;;;;;;5022650;28;20033;-80
2021/04/26 11:58:24;;;;;;;7.97;4.13;;;19.30;36.90;;;;;;5019760;28;21627;-80
2021/04/26 12:00:51;;;;;;;10.07;4.13;;;19.20;36.80;;;;;;5016550;28;20026;-80
2021/04/26 12:03:17;;;;;;;5.78;3.53;;;19.30;37.40;;;;;;5029764;28;20527;-80
2021/04/26 12:05:43;;;;;;;5.60;3.45;;;19.30;37.00;;;;;;5028586;28;20033;-80
2021/04/26 12:08:09;;;;;;;9.52;4.63;;;19.30;36.50;;;;;;5035752;28;20026;-80
2021/04/26 12:10:42;;;;;;;6.35;3.90;;;19.20;37.10;;;;;;5030059;28;20044;-80
2021/04/26 12:13:09;;;;;;;5.53;3.70;;;19.20;36.40;;;;;;5032856;28;20032;-80
2021/04/26 12:15:37;;;;;;;6.53;3.97;;;19.30;36.90;;;;;;5035632;28;20081;-80
2021/04/26 12:18:05;;;;;;;5.20;3.67;;;19.50;36.70;;;;;;5034545;28;20017;-81
2021/04/26 12:20:40;;;;;;;5.28;3.70;;;19.60;35.80;;;;;;5015756;28;20066;-80
2021/04/26 12:23:18;;;;;;;7.07;3.88;;;19.70;35.70;;;;;;5019806;28;20568;-81
2021/04/26 12:25:45;;;;;;;4.68;3.40;;;19.70;35.50;;;;;;5015107;28;20030;-80
2021/04/26 12:28:13;;;;;;;5.85;3.53;;;19.80;36.00;;;;;;5026493;28;20025;-81
2021/04/26 12:30:40;;;;;;;6.40;3.88;;;19.90;36.00;;;;;;5034193;28;20040;-81
2021/04/26 12:33:30;;;;;;;6.95;4.10;;;19.90;35.30;;;;;;5023063;28;20045;-81
2021/04/26 12:35:56;;;;;;;4.10;2.83;;;19.90;34.70;;;;;;5028290;28;20030;-79
2021/04/26 12:38:27;;;;;;;7.45;3.67;;;19.90;34.50;;;;;;5034910;28;20029;-79
2021/04/26 12:40:57;;;;;;;5.03;3.42;;;19.90;35.30;;;;;;5034125;28;20049;-79
2021/04/26 12:43:37;;;;;;;5.47;3.40;;;20.00;34.90;;;;;;5027268;28;20568;-80
2021/04/26 12:46:10;;;;;;;5.63;3.40;;;20.10;36.00;;;;;;5017063;28;20504;-79
2021/04/26 12:48:37;;;;;;;5.63;3.35;;;20.10;35.20;;;;;;5020608;28;20075;-79
2021/04/26 12:51:04;;;;;;;6.68;3.38;;;20.10;35.00;;;;;;5013872;28;20064;-79